Terminal Aerodrome Forecast
Issued by NWS

Home | Current Version | Previous Version | Text Only | Print | Product List | Glossary On
Versions: 1 2 3 4 5 6 7 8 9 10 11 12 13 14 15 16 17 18 19 20 21
925
FTUS43 KIWX 192336
TAFSBN
TAF
KSBN 192336Z 2000/2024 11006KT 5SM BR VCSH OVC060
     FM200300 11006KT 4SM -RA BR OVC015
     FM201300 11006KT 2SM BR OVC003
     FM201800 21006KT 3SM BR OVC008=

USA.gov is the U.S. government's official web portal to all federal, state and local government web resources and services.